sensor_id;sensor_type;location;lat;lon;timestamp;P1;durP1;ratioP1;P2;durP2;ratioP2
4428;SDS011;2227;47.810;8.810;2023-12-20T04:49:48;709.73;;;474.80;;
4428;SDS011;2227;47.810;8.810;2023-12-20T04:52:15;707.58;;;474.60;;
4428;SDS011;2227;47.810;8.810;2023-12-20T04:54:42;705.67;;;474.17;;
4428;SDS011;2227;47.810;8.810;2023-12-20T04:57:10;705.70;;;476.25;;
4428;SDS011;2227;47.810;8.810;2023-12-20T04:59:37;711.70;;;482.58;;
4428;SDS011;2227;47.810;8.810;2023-12-20T05:02:04;706.75;;;471.25;;
4428;SDS011;2227;47.810;8.810;2023-12-20T05:04:31;703.17;;;477.53;;
4428;SDS011;2227;47.810;8.810;2023-12-20T05:06:57;711.08;;;476.70;;
4428;SDS011;2227;47.810;8.810;2023-12-20T05:09:24;701.60;;;477.30;;
4428;SDS011;2227;47.810;8.810;2023-12-20T05:11:51;704.80;;;476.73;;
4428;SDS011;2227;47.810;8.810;2023-12-20T05:14:18;714.80;;;471.33;;
4428;SDS011;2227;47.810;8.810;2023-12-20T05:16:44;716.80;;;476.92;;
4428;SDS011;2227;47.810;8.810;2023-12-20T05:19:11;708.37;;;473.97;;
4428;SDS011;2227;47.810;8.810;2023-12-20T05:21:38;719.10;;;477.85;;
4428;SDS011;2227;47.810;8.810;2023-12-20T05:24:05;710.78;;;474.20;;
4428;SDS011;2227;47.810;8.810;2023-12-20T05:26:32;708.20;;;480.13;;
4428;SDS011;2227;47.810;8.810;2023-12-20T05:28:58;704.60;;;481.98;;
4428;SDS011;2227;47.810;8.810;2023-12-20T05:31:25;704.78;;;482.25;;
4428;SDS011;2227;47.810;8.810;2023-12-20T05:33:52;704.50;;;483.45;;
4428;SDS011;2227;47.810;8.810;2023-12-20T05:36:19;706.15;;;481.77;;
4428;SDS011;2227;47.810;8.810;2023-12-20T05:38:46;700.30;;;481.48;;
4428;SDS011;2227;47.810;8.810;2023-12-20T05:41:13;700.17;;;484.35;;
4428;SDS011;2227;47.810;8.810;2023-12-20T05:43:40;702.78;;;483.65;;
4428;SDS011;2227;47.810;8.810;2023-12-20T05:46:06;705.90;;;491.58;;
4428;SDS011;2227;47.810;8.810;2023-12-20T05:48:33;701.15;;;486.42;;
4428;SDS011;2227;47.810;8.810;2023-12-20T05:51:00;708.65;;;490.13;;
4428;SDS011;2227;47.810;8.810;2023-12-20T05:53:26;705.28;;;487.38;;
4428;SDS011;2227;47.810;8.810;2023-12-20T05:55:53;713.63;;;487.65;;
4428;SDS011;2227;47.810;8.810;2023-12-20T05:58:20;709.03;;;484.77;;
4428;SDS011;2227;47.810;8.810;2023-12-20T06:00:47;712.05;;;488.48;;
4428;SDS011;2227;47.810;8.810;2023-12-20T06:03:15;711.83;;;485.77;;
4428;SDS011;2227;47.810;8.810;2023-12-20T06:05:41;705.63;;;481.95;;
4428;SDS011;2227;47.810;8.810;2023-12-20T06:08:08;706.75;;;482.15;;
4428;SDS011;2227;47.810;8.810;2023-12-20T06:10:35;702.88;;;480.38;;
4428;SDS011;2227;47.810;8.810;2023-12-20T06:13:02;703.67;;;477.17;;
4428;SDS011;2227;47.810;8.810;2023-12-20T06:15:30;703.38;;;485.45;;
4428;SDS011;2227;47.810;8.810;2023-12-20T06:17:57;702.90;;;485.00;;
4428;SDS011;2227;47.810;8.810;2023-12-20T06:20:24;713.00;;;484.50;;
4428;SDS011;2227;47.810;8.810;2023-12-20T06:22:51;706.47;;;477.77;;
4428;SDS011;2227;47.810;8.810;2023-12-20T06:25:17;705.80;;;477.33;;
4428;SDS011;2227;47.810;8.810;2023-12-20T06:27:44;709.38;;;487.17;;
4428;SDS011;2227;47.810;8.810;2023-12-20T06:30:11;707.33;;;477.63;;
4428;SDS011;2227;47.810;8.810;2023-12-20T06:32:38;715.03;;;482.40;;
4428;SDS011;2227;47.810;8.810;2023-12-20T06:35:06;714.15;;;482.85;;
4428;SDS011;2227;47.810;8.810;2023-12-20T06:37:33;709.85;;;482.55;;
4428;SDS011;2227;47.810;8.810;2023-12-20T06:39:59;708.55;;;488.05;;
4428;SDS011;2227;47.810;8.810;2023-12-20T06:42:26;712.85;;;492.55;;
4428;SDS011;2227;47.810;8.810;2023-12-20T06:44:56;716.75;;;492.02;;
4428;SDS011;2227;47.810;8.810;2023-12-20T06:47:23;708.80;;;490.73;;
4428;SDS011;2227;47.810;8.810;2023-12-20T06:49:50;713.13;;;486.07;;
4428;SDS011;2227;47.810;8.810;2023-12-20T06:52:16;718.95;;;490.85;;
4428;SDS011;2227;47.810;8.810;2023-12-20T06:54:43;709.72;;;496.25;;
4428;SDS011;2227;47.810;8.810;2023-12-20T06:57:10;712.55;;;501.52;;
4428;SDS011;2227;47.810;8.810;2023-12-20T06:59:40;723.47;;;502.45;;
4428;SDS011;2227;47.810;8.810;2023-12-20T07:02:08;717.25;;;494.88;;
4428;SDS011;2227;47.810;8.810;2023-12-20T07:04:41;708.70;;;491.50;;
4428;SDS011;2227;47.810;8.810;2023-12-20T07:07:08;711.08;;;507.27;;
4428;SDS011;2227;47.810;8.810;2023-12-20T07:09:34;708.95;;;514.33;;
4428;SDS011;2227;47.810;8.810;2023-12-20T07:12:01;722.42;;;507.17;;
4428;SDS011;2227;47.810;8.810;2023-12-20T07:14:28;713.05;;;502.88;;
4428;SDS011;2227;47.810;8.810;2023-12-20T07:16:55;713.92;;;508.70;;
4428;SDS011;2227;47.810;8.810;2023-12-20T07:19:22;715.57;;;509.63;;
4428;SDS011;2227;47.810;8.810;2023-12-20T07:21:49;708.17;;;514.42;;
4428;SDS011;2227;47.810;8.810;2023-12-20T07:24:15;710.45;;;517.28;;
4428;SDS011;2227;47.810;8.810;2023-12-20T07:26:42;707.20;;;521.53;;
4428;SDS011;2227;47.810;8.810;2023-12-20T07:29:09;709.75;;;522.20;;
4428;SDS011;2227;47.810;8.810;2023-12-20T07:31:36;715.47;;;524.03;;
4428;SDS011;2227;47.810;8.810;2023-12-20T07:34:02;709.25;;;515.28;;
4428;SDS011;2227;47.810;8.810;2023-12-20T07:36:29;703.35;;;526.22;;
4428;SDS011;2227;47.810;8.810;2023-12-20T07:38:56;708.72;;;521.13;;
4428;SDS011;2227;47.810;8.810;2023-12-20T07:41:23;706.20;;;521.88;;
4428;SDS011;2227;47.810;8.810;2023-12-20T07:43:50;701.85;;;522.03;;
4428;SDS011;2227;47.810;8.810;2023-12-20T07:46:16;705.70;;;521.80;;
4428;SDS011;2227;47.810;8.810;2023-12-20T07:48:45;703.95;;;520.08;;
4428;SDS011;2227;47.810;8.810;2023-12-20T07:51:12;710.70;;;517.27;;
4428;SDS011;2227;47.810;8.810;2023-12-20T07:53:39;717.33;;;516.70;;
4428;SDS011;2227;47.810;8.810;2023-12-20T07:56:18;708.90;;;513.22;;
4428;SDS011;2227;47.810;8.810;2023-12-20T07:58:46;705.58;;;519.42;;
4428;SDS011;2227;47.810;8.810;2023-12-20T08:01:19;708.05;;;522.58;;
4428;SDS011;2227;47.810;8.810;2023-12-20T08:03:46;711.15;;;517.70;;
4428;SDS011;2227;47.810;8.810;2023-12-20T08:06:14;702.08;;;519.35;;
4428;SDS011;2227;47.810;8.810;2023-12-20T08:08:41;710.75;;;525.10;;
4428;SDS011;2227;47.810;8.810;2023-12-20T08:11:10;708.30;;;522.60;;
4428;SDS011;2227;47.810;8.810;2023-12-20T08:13:37;714.75;;;527.72;;
4428;SDS011;2227;47.810;8.810;2023-12-20T08:16:03;706.33;;;532.17;;
4428;SDS011;2227;47.810;8.810;2023-12-20T08:18:31;708.60;;;535.85;;
4428;SDS011;2227;47.810;8.810;2023-12-20T08:20:58;695.40;;;549.17;;
4428;SDS011;2227;47.810;8.810;2023-12-20T08:23:26;698.35;;;563.80;;
4428;SDS011;2227;47.810;8.810;2023-12-20T08:25:55;699.20;;;565.97;;
4428;SDS011;2227;47.810;8.810;2023-12-20T08:28:22;702.00;;;570.80;;
4428;SDS011;2227;47.810;8.810;2023-12-20T08:30:49;697.60;;;573.30;;
4428;SDS011;2227;47.810;8.810;2023-12-20T08:33:20;696.05;;;580.95;;
4428;SDS011;2227;47.810;8.810;2023-12-20T08:35:46;699.83;;;587.50;;
4428;SDS011;2227;47.810;8.810;2023-12-20T08:38:13;699.13;;;584.78;;
4428;SDS011;2227;47.810;8.810;2023-12-20T08:40:40;700.22;;;592.13;;
4428;SDS011;2227;47.810;8.810;2023-12-20T08:43:07;702.22;;;597.22;;
4428;SDS011;2227;47.810;8.810;2023-12-20T08:45:34;698.63;;;594.95;;
4428;SDS011;2227;47.810;8.810;2023-12-20T08:48:01;701.58;;;604.35;;
4428;SDS011;2227;47.810;8.810;2023-12-20T08:50:30;699.50;;;603.92;;
4428;SDS011;2227;47.810;8.810;2023-12-20T08:52:57;698.60;;;604.58;;
4428;SDS011;2227;47.810;8.810;2023-12-20T08:55:24;695.75;;;606.85;;
4428;SDS011;2227;47.810;8.810;2023-12-20T08:57:51;722.05;;;608.42;;
4428;SDS011;2227;47.810;8.810;2023-12-20T09:00:17;724.65;;;609.13;;
4428;SDS011;2227;47.810;8.810;2023-12-20T09:02:46;721.55;;;604.83;;
4428;SDS011;2227;47.810;8.810;2023-12-20T09:05:13;718.83;;;602.83;;
4428;SDS011;2227;47.810;8.810;2023-12-20T09:07:40;706.05;;;594.05;;
4428;SDS011;2227;47.810;8.810;2023-12-20T09:10:07;715.80;;;598.67;;
4428;SDS011;2227;47.810;8.810;2023-12-20T09:12:34;701.15;;;586.00;;
4428;SDS011;2227;47.810;8.810;2023-12-20T09:15:01;700.17;;;597.33;;
4428;SDS011;2227;47.810;8.810;2023-12-20T09:37:03;715.20;;;636.00;;
4428;SDS011;2227;47.810;8.810;2023-12-20T09:42:03;709.88;;;611.63;;
4428;SDS011;2227;47.810;8.810;2023-12-20T09:46:57;696.60;;;594.60;;
4428;SDS011;2227;47.810;8.810;2023-12-20T09:49:25;707.93;;;598.67;;
4428;SDS011;2227;47.810;8.810;2023-12-20T09:51:54;702.28;;;585.65;;
4428;SDS011;2227;47.810;8.810;2023-12-20T09:54:22;701.42;;;596.30;;
4428;SDS011;2227;47.810;8.810;2023-12-20T09:56:50;700.47;;;586.05;;
4428;SDS011;2227;47.810;8.810;2023-12-20T09:59:17;698.60;;;580.15;;
4428;SDS011;2227;47.810;8.810;2023-12-20T10:01:44;695.97;;;589.17;;
4428;SDS011;2227;47.810;8.810;2023-12-20T10:04:11;693.30;;;583.13;;
4428;SDS011;2227;47.810;8.810;2023-12-20T10:06:55;701.90;;;589.20;;
4428;SDS011;2227;47.810;8.810;2023-12-20T10:09:23;704.73;;;590.73;;
4428;SDS011;2227;47.810;8.810;2023-12-20T10:14:20;700.40;;;597.30;;
4428;SDS011;2227;47.810;8.810;2023-12-20T10:16:49;706.80;;;595.70;;
4428;SDS011;2227;47.810;8.810;2023-12-20T10:21:44;707.90;;;606.85;;
4428;SDS011;2227;47.810;8.810;2023-12-20T10:24:16;713.80;;;618.53;;
4428;SDS011;2227;47.810;8.810;2023-12-20T10:26:44;714.17;;;626.20;;
4428;SDS011;2227;47.810;8.810;2023-12-20T10:29:10;708.15;;;620.65;;
4428;SDS011;2227;47.810;8.810;2023-12-20T10:31:37;708.22;;;621.90;;
4428;SDS011;2227;47.810;8.810;2023-12-20T10:34:08;707.17;;;614.75;;
4428;SDS011;2227;47.810;8.810;2023-12-20T10:36:35;715.85;;;624.78;;
4428;SDS011;2227;47.810;8.810;2023-12-20T10:39:02;716.40;;;637.50;;
4428;SDS011;2227;47.810;8.810;2023-12-20T10:41:31;739.93;;;660.23;;
4428;SDS011;2227;47.810;8.810;2023-12-20T10:44:02;752.90;;;674.55;;
4428;SDS011;2227;47.810;8.810;2023-12-20T10:46:31;773.90;;;694.70;;
4428;SDS011;2227;47.810;8.810;2023-12-20T10:48:59;783.88;;;704.08;;
4428;SDS011;2227;47.810;8.810;2023-12-20T10:51:28;782.90;;;703.25;;
4428;SDS011;2227;47.810;8.810;2023-12-20T10:53:56;766.20;;;686.60;;
4428;SDS011;2227;47.810;8.810;2023-12-20T10:56:23;731.30;;;652.27;;
4428;SDS011;2227;47.810;8.810;2023-12-20T10:58:50;720.67;;;642.20;;
4428;SDS011;2227;47.810;8.810;2023-12-20T11:01:17;717.20;;;638.50;;
4428;SDS011;2227;47.810;8.810;2023-12-20T11:03:47;717.50;;;638.63;;
4428;SDS011;2227;47.810;8.810;2023-12-20T11:09:24;712.97;;;609.78;;
4428;SDS011;2227;47.810;8.810;2023-12-20T11:17:16;726.50;;;599.87;;
4428;SDS011;2227;47.810;8.810;2023-12-20T11:22:24;723.88;;;596.92;;
4428;SDS011;2227;47.810;8.810;2023-12-20T11:24:52;719.90;;;592.10;;
4428;SDS011;2227;47.810;8.810;2023-12-20T11:27:19;720.13;;;587.60;;
4428;SDS011;2227;47.810;8.810;2023-12-20T11:29:54;706.63;;;589.93;;
4428;SDS011;2227;47.810;8.810;2023-12-20T11:34:56;698.22;;;583.50;;
4428;SDS011;2227;47.810;8.810;2023-12-20T11:37:32;715.13;;;588.22;;
4428;SDS011;2227;47.810;8.810;2023-12-20T11:40:03;717.30;;;582.38;;
4428;SDS011;2227;47.810;8.810;2023-12-20T11:42:37;719.55;;;577.03;;
4428;SDS011;2227;47.810;8.810;2023-12-20T11:45:18;701.05;;;574.83;;
4428;SDS011;2227;47.810;8.810;2023-12-20T11:47:49;698.92;;;574.25;;
4428;SDS011;2227;47.810;8.810;2023-12-20T11:50:17;699.38;;;573.75;;
4428;SDS011;2227;47.810;8.810;2023-12-20T11:52:45;696.70;;;567.95;;
4428;SDS011;2227;47.810;8.810;2023-12-20T11:55:12;694.88;;;573.40;;
4428;SDS011;2227;47.810;8.810;2023-12-20T11:57:39;698.38;;;578.75;;
4428;SDS011;2227;47.810;8.810;2023-12-20T12:00:09;696.35;;;583.55;;
4428;SDS011;2227;47.810;8.810;2023-12-20T12:02:36;698.10;;;582.30;;
4428;SDS011;2227;47.810;8.810;2023-12-20T12:05:03;696.95;;;579.33;;
4428;SDS011;2227;47.810;8.810;2023-12-20T12:07:32;688.75;;;574.40;;
4428;SDS011;2227;47.810;8.810;2023-12-20T12:09:59;683.22;;;571.40;;
4428;SDS011;2227;47.810;8.810;2023-12-20T12:12:27;683.47;;;575.17;;
4428;SDS011;2227;47.810;8.810;2023-12-20T12:14:54;682.47;;;576.67;;
4428;SDS011;2227;47.810;8.810;2023-12-20T12:17:23;700.30;;;580.40;;
4428;SDS011;2227;47.810;8.810;2023-12-20T12:19:49;681.33;;;569.80;;
4428;SDS011;2227;47.810;8.810;2023-12-20T12:22:16;692.33;;;575.17;;
4428;SDS011;2227;47.810;8.810;2023-12-20T12:24:46;697.20;;;575.83;;
4428;SDS011;2227;47.810;8.810;2023-12-20T12:27:13;702.00;;;567.90;;
4428;SDS011;2227;47.810;8.810;2023-12-20T12:29:40;701.45;;;569.28;;
4428;SDS011;2227;47.810;8.810;2023-12-20T12:32:07;706.20;;;565.90;;
4428;SDS011;2227;47.810;8.810;2023-12-20T12:34:36;694.35;;;574.00;;
4428;SDS011;2227;47.810;8.810;2023-12-20T12:37:06;694.22;;;570.00;;
4428;SDS011;2227;47.810;8.810;2023-12-20T12:39:33;690.50;;;569.03;;
4428;SDS011;2227;47.810;8.810;2023-12-20T12:42:00;704.65;;;576.50;;
4428;SDS011;2227;47.810;8.810;2023-12-20T12:44:27;701.28;;;574.15;;
4428;SDS011;2227;47.810;8.810;2023-12-20T12:46:54;699.63;;;577.25;;
4428;SDS011;2227;47.810;8.810;2023-12-20T12:49:21;703.93;;;576.77;;
4428;SDS011;2227;47.810;8.810;2023-12-20T12:51:48;702.15;;;573.10;;
4428;SDS011;2227;47.810;8.810;2023-12-20T12:54:15;708.22;;;586.30;;
4428;SDS011;2227;47.810;8.810;2023-12-20T12:56:43;695.00;;;576.67;;
4428;SDS011;2227;47.810;8.810;2023-12-20T12:59:10;690.70;;;584.50;;
4428;SDS011;2227;47.810;8.810;2023-12-20T13:01:37;691.85;;;586.00;;
4428;SDS011;2227;47.810;8.810;2023-12-20T13:04:05;697.95;;;590.53;;
4428;SDS011;2227;47.810;8.810;2023-12-20T13:06:37;693.40;;;592.75;;
4428;SDS011;2227;47.810;8.810;2023-12-20T13:09:04;692.37;;;605.87;;
4428;SDS011;2227;47.810;8.810;2023-12-20T13:11:31;692.50;;;615.80;;
4428;SDS011;2227;47.810;8.810;2023-12-20T13:13:58;697.70;;;621.10;;
4428;SDS011;2227;47.810;8.810;2023-12-20T13:16:25;693.20;;;615.85;;
4428;SDS011;2227;47.810;8.810;2023-12-20T13:18:52;701.38;;;625.75;;
4428;SDS011;2227;47.810;8.810;2023-12-20T13:21:20;708.53;;;632.47;;
4428;SDS011;2227;47.810;8.810;2023-12-20T13:23:46;707.95;;;631.75;;
4428;SDS011;2227;47.810;8.810;2023-12-20T13:26:14;726.35;;;649.75;;
4428;SDS011;2227;47.810;8.810;2023-12-20T13:28:40;739.05;;;661.78;;
4428;SDS011;2227;47.810;8.810;2023-12-20T13:31:07;743.35;;;666.35;;
4428;SDS011;2227;47.810;8.810;2023-12-20T13:33:34;743.10;;;665.85;;
4428;SDS011;2227;47.810;8.810;2023-12-20T13:36:01;721.92;;;643.85;;
4428;SDS011;2227;47.810;8.810;2023-12-20T13:38:33;723.20;;;645.17;;
4428;SDS011;2227;47.810;8.810;2023-12-20T13:40:59;723.60;;;645.33;;
4428;SDS011;2227;47.810;8.810;2023-12-20T13:43:26;710.47;;;633.17;;
4428;SDS011;2227;47.810;8.810;2023-12-20T13:45:53;715.00;;;638.20;;
4428;SDS011;2227;47.810;8.810;2023-12-20T13:48:21;705.70;;;628.97;;
4428;SDS011;2227;47.810;8.810;2023-12-20T13:50:48;700.90;;;623.72;;
4428;SDS011;2227;47.810;8.810;2023-12-20T13:53:14;694.42;;;617.65;;
4428;SDS011;2227;47.810;8.810;2023-12-20T13:55:41;695.72;;;618.53;;
4428;SDS011;2227;47.810;8.810;2023-12-20T13:58:08;693.70;;;609.15;;
4428;SDS011;2227;47.810;8.810;2023-12-20T14:00:38;688.58;;;610.80;;
4428;SDS011;2227;47.810;8.810;2023-12-20T14:03:06;686.28;;;608.33;;
4428;SDS011;2227;47.810;8.810;2023-12-20T14:05:33;686.83;;;604.92;;
4428;SDS011;2227;47.810;8.810;2023-12-20T14:08:01;690.20;;;598.85;;
4428;SDS011;2227;47.810;8.810;2023-12-20T14:10:28;687.40;;;611.30;;
4428;SDS011;2227;47.810;8.810;2023-12-20T14:12:56;690.42;;;608.22;;
4428;SDS011;2227;47.810;8.810;2023-12-20T14:15:23;688.95;;;604.65;;
4428;SDS011;2227;47.810;8.810;2023-12-20T14:17:52;687.05;;;604.00;;
4428;SDS011;2227;47.810;8.810;2023-12-20T14:20:19;694.53;;;605.33;;
4428;SDS011;2227;47.810;8.810;2023-12-20T14:22:46;688.67;;;607.08;;
4428;SDS011;2227;47.810;8.810;2023-12-20T14:25:13;686.60;;;592.47;;
4428;SDS011;2227;47.810;8.810;2023-12-20T14:27:41;701.75;;;585.22;;
4428;SDS011;2227;47.810;8.810;2023-12-20T14:30:12;694.55;;;594.42;;
4428;SDS011;2227;47.810;8.810;2023-12-20T14:32:41;691.33;;;585.05;;
4428;SDS011;2227;47.810;8.810;2023-12-20T14:35:08;699.67;;;589.88;;
4428;SDS011;2227;47.810;8.810;2023-12-20T14:37:36;696.20;;;585.25;;
4428;SDS011;2227;47.810;8.810;2023-12-20T14:40:07;690.03;;;576.15;;
4428;SDS011;2227;47.810;8.810;2023-12-20T14:42:42;695.70;;;578.33;;
4428;SDS011;2227;47.810;8.810;2023-12-20T14:45:09;698.40;;;577.58;;
4428;SDS011;2227;47.810;8.810;2023-12-20T14:47:37;703.25;;;575.22;;
4428;SDS011;2227;47.810;8.810;2023-12-20T14:50:04;700.78;;;567.55;;
4428;SDS011;2227;47.810;8.810;2023-12-20T14:52:32;709.63;;;569.42;;
4428;SDS011;2227;47.810;8.810;2023-12-20T14:55:03;703.10;;;555.38;;
4428;SDS011;2227;47.810;8.810;2023-12-20T14:57:30;713.20;;;551.17;;
4428;SDS011;2227;47.810;8.810;2023-12-20T14:59:58;710.35;;;553.08;;
4428;SDS011;2227;47.810;8.810;2023-12-20T15:02:25;710.78;;;548.88;;
4428;SDS011;2227;47.810;8.810;2023-12-20T15:04:52;698.00;;;528.08;;
4428;SDS011;2227;47.810;8.810;2023-12-20T15:07:18;708.35;;;543.58;;
4428;SDS011;2227;47.810;8.810;2023-12-20T15:09:45;703.55;;;547.60;;
4428;SDS011;2227;47.810;8.810;2023-12-20T15:12:14;696.05;;;547.00;;
4428;SDS011;2227;47.810;8.810;2023-12-20T15:14:41;698.95;;;547.08;;
4428;SDS011;2227;47.810;8.810;2023-12-20T15:17:08;691.22;;;530.35;;
4428;SDS011;2227;47.810;8.810;2023-12-20T15:19:35;698.35;;;546.72;;
4428;SDS011;2227;47.810;8.810;2023-12-20T15:22:03;697.65;;;557.13;;
4428;SDS011;2227;47.810;8.810;2023-12-20T15:24:30;694.13;;;554.60;;
4428;SDS011;2227;47.810;8.810;2023-12-20T15:27:05;693.53;;;550.40;;
4428;SDS011;2227;47.810;8.810;2023-12-20T15:29:32;696.90;;;551.30;;
4428;SDS011;2227;47.810;8.810;2023-12-20T15:32:00;686.00;;;553.53;;
4428;SDS011;2227;47.810;8.810;2023-12-20T15:34:26;694.63;;;553.63;;
4428;SDS011;2227;47.810;8.810;2023-12-20T15:36:53;685.38;;;547.42;;
4428;SDS011;2227;47.810;8.810;2023-12-20T15:39:21;691.28;;;550.63;;
4428;SDS011;2227;47.810;8.810;2023-12-20T15:41:48;683.17;;;550.08;;
4428;SDS011;2227;47.810;8.810;2023-12-20T15:44:15;695.47;;;537.90;;
4428;SDS011;2227;47.810;8.810;2023-12-20T15:46:42;695.00;;;536.70;;
4428;SDS011;2227;47.810;8.810;2023-12-20T15:49:09;707.05;;;519.90;;
4428;SDS011;2227;47.810;8.810;2023-12-20T15:51:38;690.15;;;526.20;;
4428;SDS011;2227;47.810;8.810;2023-12-20T15:54:04;688.35;;;507.38;;
4428;SDS011;2227;47.810;8.810;2023-12-20T15:56:34;693.88;;;495.58;;
4428;SDS011;2227;47.810;8.810;2023-12-20T15:59:00;698.70;;;485.23;;
4428;SDS011;2227;47.810;8.810;2023-12-20T16:01:28;691.63;;;484.98;;
4428;SDS011;2227;47.810;8.810;2023-12-20T16:03:56;696.27;;;485.10;;
4428;SDS011;2227;47.810;8.810;2023-12-20T16:06:25;700.70;;;487.65;;
4428;SDS011;2227;47.810;8.810;2023-12-20T16:08:52;701.13;;;478.30;;
4428;SDS011;2227;47.810;8.810;2023-12-20T16:11:19;702.63;;;474.17;;
4428;SDS011;2227;47.810;8.810;2023-12-20T16:13:46;703.95;;;476.13;;
4428;SDS011;2227;47.810;8.810;2023-12-20T16:16:14;701.60;;;477.10;;
4428;SDS011;2227;47.810;8.810;2023-12-20T16:18:41;696.23;;;471.23;;
4428;SDS011;2227;47.810;8.810;2023-12-20T16:21:08;695.30;;;475.90;;
4428;SDS011;2227;47.810;8.810;2023-12-20T16:23:34;696.28;;;475.73;;
4428;SDS011;2227;47.810;8.810;2023-12-20T16:26:01;690.75;;;480.10;;
4428;SDS011;2227;47.810;8.810;2023-12-20T16:28:29;681.33;;;483.13;;
4428;SDS011;2227;47.810;8.810;2023-12-20T16:30:56;689.75;;;476.10;;
4428;SDS011;2227;47.810;8.810;2023-12-20T16:33:23;691.30;;;482.10;;
4428;SDS011;2227;47.810;8.810;2023-12-20T16:35:50;695.63;;;479.10;;
4428;SDS011;2227;47.810;8.810;2023-12-20T16:38:17;695.60;;;483.45;;
4428;SDS011;2227;47.810;8.810;2023-12-20T16:40:44;699.20;;;474.80;;
4428;SDS011;2227;47.810;8.810;2023-12-20T16:43:11;692.53;;;475.70;;
4428;SDS011;2227;47.810;8.810;2023-12-20T16:45:38;700.70;;;478.60;;
4428;SDS011;2227;47.810;8.810;2023-12-20T16:48:05;695.90;;;469.05;;
4428;SDS011;2227;47.810;8.810;2023-12-20T16:50:32;697.08;;;477.35;;
4428;SDS011;2227;47.810;8.810;2023-12-20T16:52:59;714.65;;;473.63;;
4428;SDS011;2227;47.810;8.810;2023-12-20T16:55:26;700.42;;;468.80;;
4428;SDS011;2227;47.810;8.810;2023-12-20T16:57:52;693.90;;;465.73;;
4428;SDS011;2227;47.810;8.810;2023-12-20T17:00:19;695.60;;;468.47;;
4428;SDS011;2227;47.810;8.810;2023-12-20T17:02:49;693.40;;;469.48;;
4428;SDS011;2227;47.810;8.810;2023-12-20T17:05:16;693.55;;;472.83;;
4428;SDS011;2227;47.810;8.810;2023-12-20T17:07:44;694.20;;;462.48;;
4428;SDS011;2227;47.810;8.810;2023-12-20T17:10:12;688.22;;;462.63;;
4428;SDS011;2227;47.810;8.810;2023-12-20T17:12:41;705.80;;;469.98;;
4428;SDS011;2227;47.810;8.810;2023-12-20T17:15:08;691.58;;;463.38;;
4428;SDS011;2227;47.810;8.810;2023-12-20T17:17:35;692.97;;;472.83;;
4428;SDS011;2227;47.810;8.810;2023-12-20T17:20:02;692.92;;;465.08;;
4428;SDS011;2227;47.810;8.810;2023-12-20T17:22:30;686.88;;;463.48;;
4428;SDS011;2227;47.810;8.810;2023-12-20T17:24:57;694.28;;;463.38;;
4428;SDS011;2227;47.810;8.810;2023-12-20T17:27:23;691.72;;;466.25;;
4428;SDS011;2227;47.810;8.810;2023-12-20T17:29:50;696.90;;;466.27;;
4428;SDS011;2227;47.810;8.810;2023-12-20T17:32:23;691.88;;;470.27;;
4428;SDS011;2227;47.810;8.810;2023-12-20T17:34:50;691.35;;;463.10;;
4428;SDS011;2227;47.810;8.810;2023-12-20T17:37:17;690.05;;;462.27;;
4428;SDS011;2227;47.810;8.810;2023-12-20T17:39:44;696.95;;;468.67;;
4428;SDS011;2227;47.810;8.810;2023-12-20T17:42:11;684.45;;;471.80;;
4428;SDS011;2227;47.810;8.810;2023-12-20T17:44:40;684.47;;;470.27;;
4428;SDS011;2227;47.810;8.810;2023-12-20T17:47:07;697.58;;;471.73;;
4428;SDS011;2227;47.810;8.810;2023-12-20T17:49:33;685.97;;;487.77;;
4428;SDS011;2227;47.810;8.810;2023-12-20T17:52:00;689.40;;;495.43;;
4428;SDS011;2227;47.810;8.810;2023-12-20T17:54:27;698.78;;;486.85;;
4428;SDS011;2227;47.810;8.810;2023-12-20T17:56:56;690.35;;;477.30;;
4428;SDS011;2227;47.810;8.810;2023-12-20T17:59:25;684.63;;;475.73;;
4428;SDS011;2227;47.810;8.810;2023-12-20T18:01:52;684.67;;;477.08;;
4428;SDS011;2227;47.810;8.810;2023-12-20T18:04:18;683.15;;;477.42;;
4428;SDS011;2227;47.810;8.810;2023-12-20T18:06:47;678.70;;;481.23;;
4428;SDS011;2227;47.810;8.810;2023-12-20T18:09:13;682.95;;;482.48;;
4428;SDS011;2227;47.810;8.810;2023-12-20T18:11:40;685.22;;;465.52;;
4428;SDS011;2227;47.810;8.810;2023-12-20T18:14:07;689.10;;;486.15;;
4428;SDS011;2227;47.810;8.810;2023-12-20T18:16:36;683.22;;;484.33;;
4428;SDS011;2227;47.810;8.810;2023-12-20T18:19:03;688.63;;;477.38;;
4428;SDS011;2227;47.810;8.810;2023-12-20T18:21:30;694.77;;;468.33;;
4428;SDS011;2227;47.810;8.810;2023-12-20T18:23:57;680.22;;;469.50;;
4428;SDS011;2227;47.810;8.810;2023-12-20T18:26:35;684.80;;;475.05;;
4428;SDS011;2227;47.810;8.810;2023-12-20T18:29:04;693.95;;;477.75;;
4428;SDS011;2227;47.810;8.810;2023-12-20T18:31:31;691.20;;;474.10;;
4428;SDS011;2227;47.810;8.810;2023-12-20T18:33:58;685.30;;;471.40;;
4428;SDS011;2227;47.810;8.810;2023-12-20T18:36:25;695.33;;;483.42;;
4428;SDS011;2227;47.810;8.810;2023-12-20T18:38:52;690.97;;;463.05;;
4428;SDS011;2227;47.810;8.810;2023-12-20T18:41:18;694.47;;;467.73;;
4428;SDS011;2227;47.810;8.810;2023-12-20T18:43:45;691.42;;;466.55;;
4428;SDS011;2227;47.810;8.810;2023-12-20T18:46:12;690.92;;;464.05;;
4428;SDS011;2227;47.810;8.810;2023-12-20T18:48:39;692.07;;;464.47;;
4428;SDS011;2227;47.810;8.810;2023-12-20T18:51:07;684.90;;;460.70;;
4428;SDS011;2227;47.810;8.810;2023-12-20T18:53:33;684.60;;;463.97;;
4428;SDS011;2227;47.810;8.810;2023-12-20T18:56:00;681.40;;;461.83;;
4428;SDS011;2227;47.810;8.810;2023-12-20T18:58:27;684.35;;;463.48;;
4428;SDS011;2227;47.810;8.810;2023-12-20T19:00:57;681.67;;;466.20;;
4428;SDS011;2227;47.810;8.810;2023-12-20T19:03:24;676.93;;;465.80;;
4428;SDS011;2227;47.810;8.810;2023-12-20T19:05:51;686.42;;;463.25;;
4428;SDS011;2227;47.810;8.810;2023-12-20T19:08:18;688.17;;;459.42;;
4428;SDS011;2227;47.810;8.810;2023-12-20T19:10:45;686.90;;;461.27;;
4428;SDS011;2227;47.810;8.810;2023-12-20T19:13:11;679.50;;;462.50;;
4428;SDS011;2227;47.810;8.810;2023-12-20T19:15:38;686.67;;;467.20;;
4428;SDS011;2227;47.810;8.810;2023-12-20T19:18:05;683.78;;;469.00;;
4428;SDS011;2227;47.810;8.810;2023-12-20T19:20:32;706.55;;;470.45;;
4428;SDS011;2227;47.810;8.810;2023-12-20T19:22:59;691.78;;;463.95;;
4428;SDS011;2227;47.810;8.810;2023-12-20T19:25:25;697.97;;;471.02;;
4428;SDS011;2227;47.810;8.810;2023-12-20T19:27:52;697.03;;;467.63;;
4428;SDS011;2227;47.810;8.810;2023-12-20T19:30:19;687.38;;;468.33;;
4428;SDS011;2227;47.810;8.810;2023-12-20T19:32:46;674.50;;;472.95;;
4428;SDS011;2227;47.810;8.810;2023-12-20T19:35:12;680.10;;;466.63;;
4428;SDS011;2227;47.810;8.810;2023-12-20T19:37:39;674.42;;;468.90;;
4428;SDS011;2227;47.810;8.810;2023-12-20T19:40:06;689.73;;;466.73;;
4428;SDS011;2227;47.810;8.810;2023-12-20T19:42:34;687.37;;;474.77;;
4428;SDS011;2227;47.810;8.810;2023-12-20T19:45:04;687.63;;;501.98;;
4428;SDS011;2227;47.810;8.810;2023-12-20T19:47:32;674.10;;;508.35;;
4428;SDS011;2227;47.810;8.810;2023-12-20T19:49:59;674.42;;;516.40;;
4428;SDS011;2227;47.810;8.810;2023-12-20T19:52:25;690.28;;;509.95;;
4428;SDS011;2227;47.810;8.810;2023-12-20T19:54:53;691.47;;;496.35;;